createdAt,value
2018-10-17T00:00:47.210Z,10.10
2018-10-17T00:01:53.947Z,9.50
2018-10-17T00:03:00.586Z,8.60
2018-10-17T00:04:07.362Z,9.90
2018-10-17T00:05:14.006Z,9.60
2018-10-17T00:06:21.201Z,10.10
2018-10-17T00:07:27.759Z,9.90
2018-10-17T00:08:35.137Z,10.50
2018-10-17T00:09:41.811Z,10.40
2018-10-17T00:10:48.895Z,10.10
2018-10-17T00:11:56.065Z,9.00
2018-10-17T00:13:03.378Z,9.00
2018-10-17T00:14:10.019Z,8.90
2018-10-17T00:15:17.290Z,8.90
2018-10-17T00:16:23.957Z,8.20
2018-10-17T00:17:30.685Z,8.20
2018-10-17T00:18:37.470Z,8.80
2018-10-17T00:19:44.221Z,8.80
2018-10-17T00:20:51.022Z,8.60
2018-10-17T00:21:57.545Z,8.90
2018-10-17T00:23:04.943Z,8.70
2018-10-17T00:24:11.598Z,9.10
2018-10-17T00:25:18.272Z,8.80
2018-10-17T00:26:25.029Z,8.80
2018-10-17T00:27:31.585Z,8.00
2018-10-17T00:28:38.816Z,8.50
2018-10-17T00:29:45.514Z,8.70
2018-10-17T00:30:52.408Z,8.70
2018-10-17T00:31:59.157Z,8.40
2018-10-17T00:33:06.024Z,8.70
2018-10-17T00:34:12.784Z,8.20
2018-10-17T00:35:19.485Z,8.50
2018-10-17T00:36:26.203Z,8.80
2018-10-17T00:37:32.902Z,8.90
2018-10-17T00:38:39.602Z,8.50
2018-10-17T00:39:46.721Z,8.00
2018-10-17T00:40:54.063Z,8.10
2018-10-17T00:42:00.698Z,8.70
2018-10-17T00:43:08.115Z,8.20
2018-10-17T00:44:14.688Z,8.50
2018-10-17T00:45:22.084Z,8.30
2018-10-17T00:46:28.734Z,7.50
2018-10-17T00:47:35.995Z,7.10
2018-10-17T00:48:42.598Z,8.20
2018-10-17T00:49:49.774Z,8.20
2018-10-17T00:50:56.425Z,8.00
2018-10-17T00:52:03.626Z,8.10
2018-10-17T00:53:10.499Z,8.80
2018-10-17T00:54:17.222Z,7.90
2018-10-17T00:55:23.981Z,8.30
2018-10-17T00:56:30.762Z,7.90
2018-10-17T00:57:37.618Z,8.60
2018-10-17T00:58:44.266Z,8.10
2018-10-17T00:59:51.241Z,7.80
2018-10-17T01:00:57.977Z,8.50
2018-10-17T01:02:04.778Z,7.30
2018-10-17T01:03:11.536Z,7.60
2018-10-17T01:04:18.201Z,7.40
2018-10-17T01:05:25.485Z,8.10
2018-10-17T01:06:32.158Z,8.20
2018-10-17T01:07:39.313Z,8.30
2018-10-17T01:08:45.870Z,7.90
2018-10-17T01:09:53.153Z,8.10
2018-10-17T01:10:59.802Z,8.10
2018-10-17T01:12:07.113Z,7.70
2018-10-17T01:13:13.893Z,7.90
2018-10-17T01:14:21.136Z,8.00
2018-10-17T01:15:27.905Z,8.00
2018-10-17T01:16:34.673Z,8.00
2018-10-17T01:17:41.330Z,7.30
2018-10-17T01:18:48.502Z,7.90
2018-10-17T01:19:55.825Z,7.50
2018-10-17T01:21:02.524Z,7.70
2018-10-17T01:22:09.257Z,8.00
2018-10-17T01:23:15.957Z,7.60
2018-10-17T01:24:23.277Z,7.80
2018-10-17T01:25:29.929Z,7.40
2018-10-17T01:26:37.317Z,7.80
2018-10-17T01:27:43.951Z,7.60
2018-10-17T01:28:50.840Z,7.40
2018-10-17T01:29:57.699Z,7.60
2018-10-17T01:31:04.299Z,7.60
2018-10-17T01:32:11.338Z,7.80
2018-10-17T01:33:18.502Z,7.40
2018-10-17T01:34:25.230Z,7.80
2018-10-17T01:35:31.763Z,7.80
2018-10-17T01:36:39.005Z,7.30
2018-10-17T01:37:45.601Z,8.20
2018-10-17T01:38:52.455Z,8.50
2018-10-17T01:40:01.325Z,8.30
2018-10-17T01:41:06.818Z,8.10
2018-10-17T01:42:13.450Z,8.40
2018-10-17T01:43:20.710Z,7.50
2018-10-17T01:44:27.337Z,8.00
2018-10-17T01:45:34.550Z,7.50
2018-10-17T01:46:41.085Z,8.30
2018-10-17T01:47:48.188Z,8.10
2018-10-17T01:48:55.550Z,7.80
2018-10-17T01:50:02.149Z,8.20
2018-10-17T01:51:09.205Z,7.60
2018-10-17T01:52:16.353Z,7.90
2018-10-17T01:53:23.547Z,7.70
2018-10-17T01:54:30.217Z,7.80
2018-10-17T01:55:37.463Z,7.90
2018-10-17T01:56:44.637Z,7.70
2018-10-17T01:57:51.865Z,7.90
2018-10-17T01:58:58.549Z,7.60
2018-10-17T02:00:05.274Z,7.20
2018-10-17T02:01:12.065Z,7.40
2018-10-17T02:02:18.721Z,7.00
2018-10-17T02:03:25.856Z,7.60
2018-10-17T02:04:32.861Z,8.20
2018-10-17T02:05:40.001Z,8.80
2018-10-17T02:06:46.690Z,8.30
2018-10-17T02:07:53.930Z,7.70
2018-10-17T02:09:00.601Z,7.60
2018-10-17T02:10:07.550Z,8.00
2018-10-17T02:11:14.262Z,7.90
2018-10-17T02:12:21.637Z,8.30
2018-10-17T02:13:28.378Z,7.90
2018-10-17T02:14:35.250Z,8.40
2018-10-17T02:15:41.906Z,7.70
2018-10-17T02:16:48.994Z,8.20
2018-10-17T02:17:56.105Z,8.10
2018-10-17T02:19:03.419Z,8.20
2018-10-17T02:20:10.038Z,7.60
2018-10-17T02:21:16.669Z,7.50
2018-10-17T02:22:23.956Z,8.20
2018-10-17T02:23:30.697Z,7.80
2018-10-17T02:24:37.455Z,7.80
2018-10-17T02:25:44.018Z,8.30
2018-10-17T02:26:51.307Z,8.60
2018-10-17T02:27:57.995Z,7.90
2018-10-17T02:29:04.761Z,7.40
2018-10-17T02:30:11.593Z,7.80
2018-10-17T02:31:18.492Z,8.20
2018-10-17T02:32:25.354Z,7.80
2018-10-17T02:33:31.962Z,7.90
2018-10-17T02:34:39.159Z,8.30
2018-10-17T02:35:45.829Z,7.80
2018-10-17T02:36:53.139Z,8.40
2018-10-17T02:37:59.800Z,8.60
2018-10-17T02:39:06.534Z,8.30
2018-10-17T02:40:13.502Z,7.80
2018-10-17T02:41:20.276Z,7.70
2018-10-17T02:42:26.919Z,8.70
2018-10-17T02:43:34.041Z,8.00
2018-10-17T02:44:41.174Z,7.80
2018-10-17T02:45:48.355Z,7.40
2018-10-17T02:46:56.508Z,7.00
2018-10-17T02:48:02.633Z,7.80
2018-10-17T02:49:09.768Z,7.60
2018-10-17T02:50:16.962Z,7.40
2018-10-17T02:51:23.649Z,6.90
2018-10-17T02:52:30.799Z,7.70
2018-10-17T02:53:37.679Z,7.60
2018-10-17T02:54:44.301Z,7.90
2018-10-17T02:55:51.613Z,8.30
2018-10-17T02:56:58.241Z,8.10
2018-10-17T02:58:05.150Z,8.30
2018-10-17T02:59:11.928Z,8.60
2018-10-17T03:00:19.062Z,8.30
2018-10-17T03:01:25.711Z,7.90
2018-10-17T03:02:32.815Z,7.40
2018-10-17T03:03:40.191Z,7.70
2018-10-17T03:04:46.877Z,7.90
2018-10-17T03:05:54.022Z,7.30
2018-10-17T03:07:01.234Z,8.10
2018-10-17T03:08:08.068Z,8.60
2018-10-17T03:09:14.618Z,7.80
2018-10-17T03:10:21.897Z,8.00
2018-10-17T03:11:28.531Z,7.70
2018-10-17T03:12:35.747Z,7.20
2018-10-17T03:13:42.339Z,8.00
2018-10-17T03:14:49.467Z,7.80
2018-10-17T03:15:56.542Z,7.90
2018-10-17T03:17:03.773Z,8.00
2018-10-17T03:18:10.499Z,8.60
2018-10-17T03:19:17.167Z,8.10
2018-10-17T03:20:23.913Z,8.20
2018-10-17T03:21:30.573Z,7.60
2018-10-17T03:22:37.878Z,7.80
2018-10-17T03:23:44.627Z,7.70
2018-10-17T03:24:51.357Z,7.60
2018-10-17T03:25:57.935Z,6.70
2018-10-17T03:27:05.010Z,7.30
2018-10-17T03:28:11.708Z,7.50
2018-10-17T03:29:18.943Z,7.70
2018-10-17T03:30:25.625Z,7.80
2018-10-17T03:31:32.303Z,7.30
2018-10-17T03:32:39.559Z,7.30
2018-10-17T03:33:46.119Z,7.50
2018-10-17T03:34:53.424Z,8.30
2018-10-17T03:36:00.125Z,8.70
2018-10-17T03:37:07.448Z,8.60
2018-10-17T03:38:14.000Z,7.80
2018-10-17T03:39:21.357Z,7.90
2018-10-17T03:40:27.938Z,7.00
2018-10-17T03:41:34.965Z,7.60
2018-10-17T03:42:41.726Z,7.30
2018-10-17T03:43:49.059Z,7.90
2018-10-17T03:44:56.076Z,8.60
2018-10-17T03:46:02.724Z,7.90
2018-10-17T03:47:09.859Z,7.60
2018-10-17T03:48:16.624Z,7.50
2018-10-17T03:49:23.401Z,7.60
2018-10-17T03:50:30.001Z,7.90
2018-10-17T03:51:37.420Z,7.90
2018-10-17T03:52:44.137Z,7.50
2018-10-17T03:53:51.175Z,7.60
2018-10-17T03:54:57.889Z,7.70
2018-10-17T03:56:05.533Z,7.90
2018-10-17T03:57:11.967Z,7.80
2018-10-17T03:58:19.126Z,8.00
2018-10-17T03:59:26.486Z,8.20
2018-10-17T04:00:32.985Z,8.30
2018-10-17T04:01:40.166Z,7.70
2018-10-17T04:02:46.862Z,7.80
2018-10-17T04:03:53.593Z,8.10
2018-10-17T04:05:00.218Z,7.30
2018-10-17T04:06:07.370Z,7.40
2018-10-17T04:07:14.528Z,7.40
2018-10-17T04:08:21.766Z,7.90
2018-10-17T04:09:28.550Z,7.90
2018-10-17T04:10:35.305Z,7.50
2018-10-17T04:11:41.850Z,7.90
2018-10-17T04:12:48.927Z,7.90
2018-10-17T04:13:56.003Z,8.10
2018-10-17T04:15:03.085Z,8.50
2018-10-17T04:16:10.039Z,8.40
2018-10-17T04:17:16.689Z,8.60
2018-10-17T04:18:23.882Z,8.40
2018-10-17T04:19:30.569Z,8.00
2018-10-17T04:20:37.564Z,8.80
2018-10-17T04:21:44.582Z,7.80
2018-10-17T04:22:51.934Z,8.20
2018-10-17T04:23:58.447Z,7.20
2018-10-17T04:25:05.684Z,8.10
2018-10-17T04:26:12.353Z,8.10
2018-10-17T04:27:19.543Z,8.10
2018-10-17T04:28:26.650Z,8.00
2018-10-17T04:29:33.793Z,8.00
2018-10-17T04:30:40.477Z,8.40
2018-10-17T04:31:47.602Z,8.10
2018-10-17T04:32:54.795Z,8.10
2018-10-17T04:34:01.463Z,8.40
2018-10-17T04:35:08.239Z,7.80
2018-10-17T04:36:14.845Z,8.10
2018-10-17T04:37:21.650Z,8.40
2018-10-17T04:38:28.202Z,8.20
2018-10-17T04:39:35.494Z,7.90
2018-10-17T04:40:42.147Z,7.80
2018-10-17T04:41:48.690Z,7.80
2018-10-17T04:42:55.738Z,8.00
2018-10-17T04:44:02.783Z,7.90
2018-10-17T04:45:09.628Z,7.70
2018-10-17T04:46:16.383Z,7.60
2018-10-17T04:47:23.562Z,8.50
2018-10-17T04:48:30.070Z,7.40
2018-10-17T04:49:37.511Z,8.50
2018-10-17T04:50:44.178Z,8.10
2018-10-17T04:51:51.427Z,8.40
2018-10-17T04:52:58.046Z,8.10
2018-10-17T04:54:05.266Z,7.10
2018-10-17T04:55:12.250Z,8.10
2018-10-17T04:56:19.305Z,7.90
2018-10-17T04:57:26.282Z,7.60
2018-10-17T04:58:33.352Z,7.50
2018-10-17T04:59:40.462Z,8.00
2018-10-17T05:00:47.506Z,8.20
2018-10-17T05:01:54.715Z,8.40
2018-10-17T05:03:01.315Z,7.60
2018-10-17T05:04:08.388Z,8.10
2018-10-17T05:05:15.298Z,8.70
2018-10-17T05:06:22.043Z,7.50
2018-10-17T05:07:28.652Z,7.50
2018-10-17T05:08:35.881Z,7.90
2018-10-17T05:09:42.750Z,8.20
2018-10-17T05:10:49.403Z,8.40
2018-10-17T05:11:56.404Z,8.10
2018-10-17T05:13:03.666Z,7.80
2018-10-17T05:14:10.422Z,8.10
2018-10-17T05:15:17.260Z,8.90
2018-10-17T05:16:23.960Z,9.00
2018-10-17T05:17:31.006Z,8.00
2018-10-17T05:18:38.202Z,8.50
2018-10-17T05:19:44.870Z,7.90
2018-10-17T05:20:51.610Z,8.10
2018-10-17T05:21:58.390Z,8.80
2018-10-17T05:23:05.713Z,8.30
2018-10-17T05:24:12.330Z,9.10
2018-10-17T05:25:19.449Z,9.80
2018-10-17T05:26:26.249Z,9.50
2018-10-17T05:27:33.034Z,9.50
2018-10-17T05:28:39.743Z,8.90
2018-10-17T05:29:46.405Z,8.30
2018-10-17T05:30:53.670Z,9.00
2018-10-17T05:32:00.412Z,8.30
2018-10-17T05:33:07.369Z,8.70
2018-10-17T05:34:13.978Z,9.30
2018-10-17T05:35:21.259Z,8.80
2018-10-17T05:36:27.875Z,8.60
2018-10-17T05:37:35.304Z,8.60
2018-10-17T05:38:41.898Z,8.50
2018-10-17T05:39:49.083Z,9.10
2018-10-17T05:40:55.782Z,8.90
2018-10-17T05:42:02.399Z,9.20
2018-10-17T05:43:09.175Z,8.50
2018-10-17T05:44:16.391Z,9.10
2018-10-17T05:45:23.221Z,8.70
2018-10-17T05:46:29.871Z,9.20
2018-10-17T05:47:36.752Z,9.00
2018-10-17T05:48:43.407Z,8.70
2018-10-17T05:49:50.627Z,8.70
2018-10-17T05:50:57.254Z,8.70
2018-10-17T05:52:04.466Z,8.90
2018-10-17T05:53:11.243Z,8.80
2018-10-17T05:54:18.282Z,8.90
2018-10-17T05:55:25.525Z,9.40
2018-10-17T05:56:32.186Z,8.60
2018-10-17T05:57:39.362Z,9.20
2018-10-17T05:58:46.546Z,8.30
2018-10-17T05:59:53.308Z,9.00
2018-10-17T06:00:59.868Z,8.80
2018-10-17T06:02:07.197Z,8.80
2018-10-17T06:03:13.805Z,7.80
2018-10-17T06:04:21.186Z,8.80
2018-10-17T06:05:27.770Z,8.40
2018-10-17T06:06:35.020Z,8.00
2018-10-17T06:07:41.797Z,8.50
2018-10-17T06:08:48.436Z,8.50
2018-10-17T06:09:55.553Z,8.80
2018-10-17T06:11:02.633Z,7.90
2018-10-17T06:12:09.850Z,8.90
2018-10-17T06:13:16.539Z,8.70
2018-10-17T06:14:23.288Z,8.60
2018-10-17T06:15:29.985Z,9.20
2018-10-17T06:16:36.809Z,9.20
2018-10-17T06:17:43.481Z,9.60
2018-10-17T06:18:50.267Z,9.80
2018-10-17T06:19:56.991Z,9.30
2018-10-17T06:21:04.213Z,9.10
2018-10-17T06:22:10.898Z,8.60
2018-10-17T06:23:17.527Z,8.70
2018-10-17T06:24:25.112Z,8.70
2018-10-17T06:25:31.781Z,9.00
2018-10-17T06:26:38.566Z,9.80
2018-10-17T06:27:45.097Z,8.50
2018-10-17T06:28:52.824Z,8.50
2018-10-17T06:29:59.025Z,9.10
2018-10-17T06:31:05.945Z,8.60
2018-10-17T06:32:12.576Z,9.10
2018-10-17T06:33:19.852Z,9.30
2018-10-17T06:34:26.490Z,8.60
2018-10-17T06:35:33.569Z,8.30
2018-10-17T06:36:40.772Z,8.80
2018-10-17T06:37:47.510Z,8.90
2018-10-17T06:38:54.186Z,9.30
2018-10-17T06:40:00.938Z,9.30
2018-10-17T06:41:07.941Z,9.00
2018-10-17T06:42:14.665Z,8.80
2018-10-17T06:43:22.008Z,9.00
2018-10-17T06:44:28.627Z,9.60
2018-10-17T06:45:35.505Z,9.90
2018-10-17T06:46:42.272Z,8.90
2018-10-17T06:47:48.833Z,9.40
2018-10-17T06:48:56.013Z,8.40
2018-10-17T06:50:03.111Z,8.90
2018-10-17T06:51:10.113Z,9.00
2018-10-17T06:52:16.799Z,7.80
2018-10-17T06:53:23.671Z,8.70
2018-10-17T06:54:30.367Z,9.70
2018-10-17T06:55:37.609Z,9.30
2018-10-17T06:56:44.990Z,8.70
2018-10-17T06:57:51.747Z,9.00
2018-10-17T06:58:58.580Z,10.10
2018-10-17T07:00:05.488Z,10.70
2018-10-17T07:01:12.104Z,10.10
2018-10-17T07:02:18.669Z,10.40
2018-10-17T07:03:25.855Z,10.50
2018-10-17T07:04:33.035Z,10.50
2018-10-17T07:05:39.825Z,10.80
2018-10-17T07:06:46.498Z,10.70
2018-10-17T07:07:53.243Z,10.50
2018-10-17T07:08:59.896Z,9.80
2018-10-17T07:10:07.291Z,10.00
2018-10-17T07:11:13.995Z,10.60
2018-10-17T07:12:20.821Z,10.00
2018-10-17T07:13:27.513Z,10.80
2018-10-17T07:14:34.883Z,10.30
2018-10-17T07:15:41.750Z,10.50
2018-10-17T07:16:48.653Z,10.30
2018-10-17T07:17:55.695Z,10.50
2018-10-17T07:19:02.839Z,9.40
2018-10-17T07:20:09.609Z,10.20
2018-10-17T07:21:16.702Z,10.00
2018-10-17T07:22:23.977Z,11.00
2018-10-17T07:23:30.604Z,10.80
2018-10-17T07:24:37.795Z,11.60
2018-10-17T07:25:44.567Z,11.30
2018-10-17T07:26:51.339Z,11.60
2018-10-17T07:27:58.078Z,11.80
2018-10-17T07:29:04.915Z,11.60
2018-10-17T07:30:11.491Z,10.80
2018-10-17T07:31:18.614Z,11.70
2018-10-17T07:32:25.752Z,12.40
2018-10-17T07:33:32.514Z,12.70
2018-10-17T07:34:39.679Z,13.40
2018-10-17T07:35:46.445Z,12.90
2018-10-17T07:36:53.148Z,12.80
2018-10-17T07:37:59.894Z,11.70
2018-10-17T07:39:06.715Z,10.80
2018-10-17T07:40:13.441Z,11.40
2018-10-17T07:41:20.666Z,12.80
2018-10-17T07:42:27.384Z,13.10
2018-10-17T07:43:34.013Z,12.90
2018-10-17T07:44:41.202Z,11.50
2018-10-17T07:45:48.009Z,12.20
2018-10-17T07:46:54.949Z,12.90
2018-10-17T07:48:01.658Z,15.40
2018-10-17T07:49:08.578Z,15.40
2018-10-17T07:50:15.358Z,15.80
2018-10-17T07:51:22.145Z,16.20
2018-10-17T07:52:28.735Z,14.40
2018-10-17T07:53:36.053Z,13.30
2018-10-17T07:54:42.693Z,14.30
2018-10-17T07:55:49.982Z,13.00
2018-10-17T07:56:56.729Z,14.40
2018-10-17T07:58:03.930Z,14.10
2018-10-17T07:59:10.718Z,14.80
2018-10-17T08:00:17.474Z,16.50
2018-10-17T08:01:24.099Z,15.00
2018-10-17T08:02:30.702Z,16.10
2018-10-17T08:03:37.842Z,15.20
2018-10-17T08:04:45.020Z,17.20
2018-10-17T08:05:51.920Z,15.90
2018-10-17T08:06:58.529Z,15.10
2018-10-17T08:08:05.843Z,15.40
2018-10-17T08:09:12.510Z,15.70
2018-10-17T08:10:19.770Z,15.40
2018-10-17T08:11:26.418Z,14.10
2018-10-17T08:12:33.616Z,15.30
2018-10-17T08:13:40.653Z,16.50
2018-10-17T08:14:47.166Z,17.00
2018-10-17T08:15:54.411Z,15.40
2018-10-17T08:17:01.031Z,15.10
2018-10-17T08:18:08.037Z,12.90
2018-10-17T08:19:14.505Z,13.60
2018-10-17T08:20:21.879Z,15.30
2018-10-17T08:21:28.651Z,15.00
2018-10-17T08:22:35.433Z,15.10
2018-10-17T08:23:42.350Z,14.20
2018-10-17T08:24:49.402Z,15.50
2018-10-17T08:25:56.511Z,13.90
2018-10-17T08:27:03.575Z,14.00
2018-10-17T08:28:10.526Z,14.60
2018-10-17T08:29:17.084Z,15.00
2018-10-17T08:30:24.238Z,15.40
2018-10-17T08:31:31.328Z,16.10
2018-10-17T08:32:38.275Z,15.40
2018-10-17T08:33:45.521Z,16.40
2018-10-17T08:34:52.282Z,16.10
2018-10-17T08:35:59.054Z,15.60
2018-10-17T08:37:06.322Z,15.00
2018-10-17T08:38:12.911Z,14.80
2018-10-17T08:39:19.738Z,14.60
2018-10-17T08:40:26.394Z,14.00
2018-10-17T08:41:33.489Z,14.80
2018-10-17T08:42:40.221Z,14.50
2018-10-17T08:43:47.442Z,13.90
2018-10-17T08:44:54.117Z,16.20
2018-10-17T08:46:00.745Z,15.70
2018-10-17T08:47:08.035Z,16.10
2018-10-17T08:48:14.714Z,15.30
2018-10-17T08:49:21.523Z,16.50
2018-10-17T08:50:28.330Z,16.40
2018-10-17T08:51:35.606Z,15.10
2018-10-17T08:52:42.282Z,15.70
2018-10-17T08:53:48.934Z,15.30
2018-10-17T08:54:56.090Z,16.10
2018-10-17T08:56:03.237Z,16.10
2018-10-17T08:57:10.194Z,15.90
2018-10-17T08:58:17.359Z,15.90
2018-10-17T08:59:24.051Z,16.20
2018-10-17T09:00:30.742Z,16.40
2018-10-17T09:01:37.935Z,16.50
2018-10-17T09:02:44.594Z,17.10
2018-10-17T09:03:51.829Z,16.70
2018-10-17T09:04:58.406Z,16.10
2018-10-17T09:06:05.595Z,16.30
2018-10-17T09:07:12.363Z,16.60
2018-10-17T09:08:19.129Z,17.40
2018-10-17T09:09:25.581Z,16.60
2018-10-17T09:10:32.756Z,17.10
2018-10-17T09:11:40.081Z,16.50
2018-10-17T09:12:46.691Z,16.80
2018-10-17T09:13:53.478Z,17.30
2018-10-17T09:15:00.127Z,16.80
2018-10-17T09:16:07.153Z,16.80
2018-10-17T09:17:13.745Z,16.70
2018-10-17T09:18:20.475Z,17.20
2018-10-17T09:19:27.231Z,17.40
2018-10-17T09:20:33.917Z,18.00
2018-10-17T09:21:41.137Z,17.30
2018-10-17T09:22:47.994Z,17.60
2018-10-17T09:23:54.745Z,17.70
2018-10-17T09:25:01.684Z,17.10
2018-10-17T09:26:08.605Z,17.10
2018-10-17T09:27:15.343Z,17.10
2018-10-17T09:28:22.630Z,18.30
2018-10-17T09:29:29.314Z,18.60
2018-10-17T09:30:36.111Z,18.10
2018-10-17T09:31:42.721Z,18.40
2018-10-17T09:32:49.954Z,19.00
2018-10-17T09:33:56.744Z,19.40
2018-10-17T09:35:03.843Z,17.70
2018-10-17T09:36:10.911Z,17.90
2018-10-17T09:37:17.965Z,18.60
2018-10-17T09:38:25.262Z,17.90
2018-10-17T09:39:32.046Z,18.40
2018-10-17T09:40:38.790Z,18.00
2018-10-17T09:41:45.454Z,18.90
2018-10-17T09:42:52.730Z,17.50
2018-10-17T09:43:59.413Z,19.80
2018-10-17T09:45:06.259Z,20.00
2018-10-17T09:46:13.136Z,19.90
2018-10-17T09:47:20.318Z,20.50
2018-10-17T09:48:27.076Z,19.10
2018-10-17T09:49:33.746Z,18.30
2018-10-17T09:50:40.713Z,18.80
2018-10-17T09:51:47.467Z,19.00
2018-10-17T09:52:54.229Z,18.00
2018-10-17T09:54:00.956Z,18.10
2018-10-17T09:55:07.708Z,18.90
2018-10-17T09:56:14.737Z,17.10
2018-10-17T09:57:21.527Z,18.80
2018-10-17T09:58:28.351Z,18.30
2018-10-17T09:59:35.144Z,19.50
2018-10-17T10:00:41.898Z,19.00
2018-10-17T10:01:48.772Z,18.90
2018-10-17T10:02:55.963Z,19.30
2018-10-17T10:04:02.772Z,18.50
2018-10-17T10:05:09.789Z,20.00
2018-10-17T10:06:16.423Z,18.10
2018-10-17T10:07:23.626Z,19.60
2018-10-17T10:08:30.178Z,18.70
2018-10-17T10:09:37.470Z,19.10
2018-10-17T10:10:44.635Z,19.40
2018-10-17T10:11:50.834Z,18.70
2018-10-17T10:12:57.544Z,17.80
2018-10-17T10:14:04.801Z,18.50
2018-10-17T10:15:11.687Z,19.70
2018-10-17T10:16:18.354Z,19.40
2018-10-17T10:17:25.263Z,18.70
2018-10-17T10:18:31.807Z,19.50
2018-10-17T10:19:39.064Z,18.60
2018-10-17T10:20:45.643Z,19.00
2018-10-17T10:21:52.827Z,19.60
2018-10-17T10:22:59.572Z,18.80
2018-10-17T10:24:06.472Z,17.20
2018-10-17T10:25:13.147Z,18.50
2018-10-17T10:26:20.378Z,18.60
2018-10-17T10:27:27.131Z,18.50
2018-10-17T10:28:33.942Z,18.10
2018-10-17T10:29:40.721Z,19.30
2018-10-17T10:30:47.424Z,18.10
2018-10-17T10:31:54.390Z,19.20
2018-10-17T10:33:01.025Z,17.60
2018-10-17T10:34:08.220Z,19.10
2018-10-17T10:35:14.879Z,17.80
2018-10-17T10:36:22.079Z,16.80
2018-10-17T10:37:28.835Z,17.50
2018-10-17T10:38:35.599Z,17.40
2018-10-17T10:39:42.387Z,17.90
2018-10-17T10:40:49.021Z,17.60
2018-10-17T10:41:56.238Z,16.50
2018-10-17T10:43:02.958Z,16.00
2018-10-17T10:44:09.732Z,16.00
2018-10-17T10:45:16.574Z,16.70
2018-10-17T10:46:23.367Z,16.30
2018-10-17T10:47:30.024Z,16.90
2018-10-17T10:48:37.307Z,16.20
2018-10-17T10:49:43.987Z,16.60
2018-10-17T10:50:51.247Z,16.90
2018-10-17T10:51:57.899Z,16.40
2018-10-17T10:53:05.299Z,17.00
2018-10-17T10:54:12.027Z,17.60
2018-10-17T10:55:18.631Z,18.00
2018-10-17T10:56:25.593Z,18.00
2018-10-17T10:57:32.328Z,18.80
2018-10-17T10:58:39.152Z,17.80
2018-10-17T10:59:45.833Z,19.00
2018-10-17T11:00:52.546Z,17.80
2018-10-17T11:01:59.240Z,18.20
2018-10-17T11:03:05.993Z,18.10
2018-10-17T11:04:12.630Z,17.30
2018-10-17T11:05:19.912Z,19.10
2018-10-17T11:06:26.562Z,17.80
2018-10-17T11:07:33.229Z,17.90
2018-10-17T11:08:40.495Z,18.50
2018-10-17T11:09:47.158Z,18.10
2018-10-17T11:10:54.171Z,17.70
2018-10-17T11:12:00.898Z,17.80
2018-10-17T11:13:07.975Z,17.60
2018-10-17T11:14:14.877Z,17.90
2018-10-17T11:15:21.654Z,18.40
2018-10-17T11:16:28.439Z,17.70
2018-10-17T11:17:35.254Z,18.30
2018-10-17T11:18:42.107Z,18.40
2018-10-17T11:19:48.951Z,18.60
2018-10-17T11:20:55.771Z,18.30
2018-10-17T11:22:02.987Z,18.50
2018-10-17T11:23:10.195Z,17.00
2018-10-17T11:24:17.014Z,17.50
2018-10-17T11:25:24.245Z,17.00
2018-10-17T11:26:31.094Z,17.60
2018-10-17T11:27:37.769Z,17.40
2018-10-17T11:28:46.360Z,16.30
2018-10-17T11:29:52.113Z,17.40
2018-10-17T11:30:58.673Z,15.90
2018-10-17T11:32:05.849Z,16.10
2018-10-17T11:33:12.643Z,17.10
2018-10-17T11:34:19.279Z,16.20
2018-10-17T11:35:25.970Z,16.30
2018-10-17T11:36:32.603Z,15.70
2018-10-17T11:37:40.415Z,16.80
2018-10-17T11:38:46.318Z,15.20
2018-10-17T11:39:53.644Z,14.70
2018-10-17T11:41:00.302Z,13.70
2018-10-17T11:42:07.550Z,14.20
2018-10-17T11:43:14.111Z,13.60
2018-10-17T11:44:21.391Z,13.80
2018-10-17T11:45:27.946Z,12.50
2018-10-17T11:46:35.351Z,13.40
2018-10-17T11:47:42.123Z,11.90
2018-10-17T11:48:48.774Z,11.20
2018-10-17T11:49:55.927Z,10.40
2018-10-17T11:51:02.640Z,11.20
2018-10-17T11:52:09.368Z,10.70
2018-10-17T11:53:16.209Z,10.30
2018-10-17T11:54:22.766Z,10.90
2018-10-17T11:55:29.963Z,11.10
2018-10-17T11:56:37.202Z,11.20
2018-10-17T11:57:43.782Z,10.90
2018-10-17T11:58:50.966Z,10.30
2018-10-17T11:59:57.635Z,11.10
2018-10-17T12:01:04.433Z,10.70
2018-10-17T12:02:11.284Z,10.50
2018-10-17T12:03:17.993Z,9.80
2018-10-17T12:04:25.020Z,11.10
2018-10-17T12:05:31.890Z,10.70
2018-10-17T12:06:38.814Z,9.90
2018-10-17T12:07:45.604Z,10.30
2018-10-17T12:08:52.410Z,9.50
2018-10-17T12:09:59.040Z,9.50
2018-10-17T12:11:08.001Z,8.50
2018-10-17T12:12:12.911Z,8.70
2018-10-17T12:13:20.138Z,9.20
2018-10-17T12:14:26.815Z,9.00
2018-10-17T12:15:33.434Z,8.50
2018-10-17T12:16:40.657Z,9.10
2018-10-17T12:17:47.322Z,9.50
2018-10-17T12:18:54.513Z,8.40
2018-10-17T12:20:01.277Z,9.50
2018-10-17T12:21:08.211Z,8.80
2018-10-17T12:22:14.818Z,8.30
2018-10-17T12:23:22.025Z,8.60
2018-10-17T12:24:28.610Z,8.50
2018-10-17T12:25:35.844Z,9.30
2018-10-17T12:26:42.662Z,8.70
2018-10-17T12:27:49.464Z,8.40
2018-10-17T12:28:56.125Z,8.90
2018-10-17T12:30:03.272Z,8.80
2018-10-17T12:31:10.397Z,8.80
2018-10-17T12:32:17.114Z,9.10
2018-10-17T12:33:23.850Z,9.30
2018-10-17T12:34:30.420Z,9.60
2018-10-17T12:35:37.547Z,9.60
2018-10-17T12:36:44.679Z,9.20
2018-10-17T12:37:51.941Z,8.60
2018-10-17T12:38:58.756Z,8.80
2018-10-17T12:40:05.539Z,9.20
2018-10-17T12:41:12.472Z,8.30
2018-10-17T12:42:19.169Z,8.40
2018-10-17T12:43:25.787Z,9.10
2018-10-17T12:44:33.047Z,9.30
2018-10-17T12:45:39.822Z,9.20
2018-10-17T12:46:46.442Z,8.40
2018-10-17T12:47:53.651Z,8.80
2018-10-17T12:49:00.362Z,8.50
2018-10-17T12:50:07.323Z,9.50
2018-10-17T12:51:13.951Z,8.00
2018-10-17T12:52:20.714Z,8.10
2018-10-17T12:53:27.289Z,8.90
2018-10-17T12:54:34.441Z,7.80
2018-10-17T12:55:41.642Z,8.20
2018-10-17T12:56:48.402Z,8.30
2018-10-17T12:57:55.272Z,8.60
2018-10-17T12:59:02.044Z,9.10
2018-10-17T13:00:09.096Z,8.80
2018-10-17T13:01:15.898Z,8.20
2018-10-17T13:02:22.635Z,7.40
2018-10-17T13:03:29.219Z,7.40
2018-10-17T13:04:36.558Z,7.20
2018-10-17T13:05:43.220Z,7.10
2018-10-17T13:06:50.506Z,7.40
2018-10-17T13:07:57.198Z,7.10
2018-10-17T13:09:03.903Z,8.00
2018-10-17T13:10:10.999Z,8.60
2018-10-17T13:11:18.329Z,7.60
2018-10-17T13:12:24.952Z,7.40
2018-10-17T13:13:31.603Z,7.50
2018-10-17T13:14:38.777Z,6.80
2018-10-17T13:15:45.443Z,7.20
2018-10-17T13:16:52.289Z,6.30
2018-10-17T13:17:58.991Z,6.20
2018-10-17T13:19:05.968Z,6.80
2018-10-17T13:20:12.729Z,6.90
2018-10-17T13:21:19.380Z,6.30
2018-10-17T13:22:26.470Z,6.60
2018-10-17T13:23:33.707Z,6.70
2018-10-17T13:24:40.902Z,6.50
2018-10-17T13:25:47.961Z,7.00
2018-10-17T13:26:54.875Z,6.50
2018-10-17T13:28:02.527Z,7.40
2018-10-17T13:29:08.858Z,6.70
2018-10-17T13:30:15.535Z,7.00
2018-10-17T13:31:22.311Z,6.90
2018-10-17T13:32:29.218Z,7.00
2018-10-17T13:33:36.542Z,6.80
2018-10-17T13:34:43.211Z,6.30
2018-10-17T13:35:49.970Z,6.50
2018-10-17T13:36:56.641Z,7.00
2018-10-17T13:38:03.447Z,6.80
2018-10-17T13:39:10.411Z,6.00
2018-10-17T13:40:17.234Z,7.00
2018-10-17T13:41:24.002Z,6.90
2018-10-17T13:42:30.698Z,6.70
2018-10-17T13:43:37.450Z,6.40
2018-10-17T13:44:44.083Z,6.70
2018-10-17T13:45:51.480Z,6.40
2018-10-17T13:46:58.053Z,6.90
2018-10-17T13:48:05.438Z,6.70
2018-10-17T13:49:12.233Z,7.10
2018-10-17T13:50:19.359Z,7.00
2018-10-17T13:51:25.927Z,6.30
2018-10-17T13:52:32.804Z,8.00
2018-10-17T13:53:39.645Z,6.30
2018-10-17T13:54:46.391Z,7.70
2018-10-17T13:55:53.588Z,6.90
2018-10-17T13:57:00.658Z,6.80
2018-10-17T13:58:07.064Z,6.00
2018-10-17T13:59:13.702Z,6.00
2018-10-17T14:00:20.590Z,6.20
2018-10-17T14:01:27.198Z,7.00
2018-10-17T14:02:34.395Z,6.80
2018-10-17T14:03:41.558Z,6.30
2018-10-17T14:04:48.217Z,6.50
2018-10-17T14:05:55.090Z,6.30
2018-10-17T14:07:01.668Z,6.20
2018-10-17T14:08:08.532Z,6.00
2018-10-17T14:09:15.236Z,6.20
2018-10-17T14:10:22.033Z,5.80
2018-10-17T14:11:28.659Z,5.70
2018-10-17T14:12:35.874Z,6.20
2018-10-17T14:13:42.534Z,5.90
2018-10-17T14:14:49.766Z,6.40
2018-10-17T14:15:56.586Z,5.50
2018-10-17T14:17:03.263Z,5.80
2018-10-17T14:18:10.765Z,5.90
2018-10-17T14:19:17.498Z,5.80
2018-10-17T14:20:24.182Z,6.80
2018-10-17T14:21:31.150Z,6.50
2018-10-17T14:22:38.431Z,6.80
2018-10-17T14:23:45.183Z,5.90
2018-10-17T14:24:52.038Z,5.70
2018-10-17T14:25:58.627Z,6.40
2018-10-17T14:27:06.070Z,5.90
2018-10-17T14:28:12.657Z,5.70
2018-10-17T14:29:19.321Z,5.90
2018-10-17T14:30:26.499Z,6.00
2018-10-17T14:31:33.095Z,6.00
2018-10-17T14:32:40.518Z,5.80
2018-10-17T14:33:47.099Z,6.10
2018-10-17T14:34:54.393Z,5.90
2018-10-17T14:36:01.397Z,5.70
2018-10-17T14:37:08.214Z,5.70
2018-10-17T14:38:14.871Z,5.50
2018-10-17T14:39:21.972Z,5.60
2018-10-17T14:40:28.636Z,5.50